createdAt,value
2023-03-31T00:00:12.952Z,98981.22
2023-03-31T00:02:42.055Z,98997.59
2023-03-31T00:05:10.113Z,98993.56
2023-03-31T00:07:40.082Z,99006.75
2023-03-31T00:10:17.352Z,98999.59
2023-03-31T00:12:46.014Z,99002.41
2023-03-31T00:15:13.732Z,99001.25
2023-03-31T00:17:40.451Z,99000.38
2023-03-31T00:20:12.336Z,98996.84
2023-03-31T00:22:42.361Z,99000.38
2023-03-31T00:25:11.260Z,98994.75
2023-03-31T00:27:38.204Z,98987.66
2023-03-31T00:30:05.409Z,98983.34
2023-03-31T00:32:33.452Z,98978.16
2023-03-31T00:35:02.549Z,98978.88
2023-03-31T00:37:29.696Z,98974.97
2023-03-31T00:39:57.157Z,98982.84
2023-03-31T00:42:24.360Z,98971.03
2023-03-31T00:45:15.560Z,98969.19
2023-03-31T00:47:57.901Z,98970.88
2023-03-31T00:50:31.410Z,98965.94
2023-03-31T00:53:03.261Z,98958.81
2023-03-31T00:55:35.462Z,98958.81
2023-03-31T00:58:04.738Z,98955.97
2023-03-31T01:00:31.491Z,98944.69
2023-03-31T01:03:03.655Z,98946.28
2023-03-31T01:05:47.494Z,98957.59
2023-03-31T01:08:16.374Z,98947.72
2023-03-31T01:10:48.119Z,98948.41
2023-03-31T01:13:16.928Z,98949.47
2023-03-31T01:15:44.499Z,98950.66
2023-03-31T01:18:14.311Z,98951.75
2023-03-31T01:21:19.721Z,98960.00
2023-03-31T01:23:49.230Z,98948.09
2023-03-31T01:26:46.152Z,98962.16
2023-03-31T01:29:46.708Z,98947.81
2023-03-31T01:32:47.529Z,98943.47
2023-03-31T01:35:44.987Z,98947.97
2023-03-31T01:38:32.733Z,98946.53
2023-03-31T01:41:36.966Z,98942.59
2023-03-31T01:44:36.167Z,98946.59
2023-03-31T01:47:18.292Z,98937.50
2023-03-31T01:49:50.819Z,98938.03
2023-03-31T01:52:32.973Z,98934.41
2023-03-31T01:55:08.909Z,98929.53
2023-03-31T01:57:39.517Z,98927.50
2023-03-31T02:00:11.897Z,98927.44
2023-03-31T02:02:44.628Z,98913.38
2023-03-31T02:05:22.048Z,98906.66
2023-03-31T02:07:54.839Z,98911.59
2023-03-31T02:10:24.273Z,98894.19
2023-03-31T02:12:51.958Z,98897.91
2023-03-31T02:15:27.389Z,98896.66
2023-03-31T02:17:59.140Z,98904.16
2023-03-31T02:20:29.423Z,98898.31
2023-03-31T02:22:57.476Z,98896.75
2023-03-31T02:25:32.627Z,98900.81
2023-03-31T02:28:07.618Z,98892.00
2023-03-31T02:30:59.009Z,98885.72
2023-03-31T02:33:25.915Z,98881.63
2023-03-31T02:35:52.820Z,98874.78
2023-03-31T02:38:19.763Z,98878.88
2023-03-31T02:40:46.468Z,98866.13
2023-03-31T02:43:13.176Z,98852.19
2023-03-31T02:45:47.131Z,98849.69
2023-03-31T02:48:43.000Z,98844.09
2023-03-31T02:51:28.313Z,98842.16
2023-03-31T02:53:57.834Z,98844.59
2023-03-31T02:56:48.968Z,98855.09
2023-03-31T02:59:59.408Z,98851.91
2023-03-31T03:02:51.010Z,98843.56
2023-03-31T03:05:38.278Z,98852.25
2023-03-31T03:08:55.797Z,98841.88
2023-03-31T03:11:30.565Z,98846.59
2023-03-31T03:14:31.842Z,98851.44
2023-03-31T03:17:06.093Z,98839.94
2023-03-31T03:19:32.781Z,98845.78
2023-03-31T03:21:59.383Z,98843.81
2023-03-31T03:24:29.692Z,98842.84
2023-03-31T03:26:56.730Z,98847.34
2023-03-31T03:29:23.409Z,98843.38
2023-03-31T03:31:49.989Z,98842.84
2023-03-31T03:34:16.605Z,98835.91
2023-03-31T03:36:43.186Z,98826.91
2023-03-31T03:39:09.874Z,98834.50
2023-03-31T03:41:36.799Z,98832.28
2023-03-31T03:44:03.823Z,98817.00
2023-03-31T03:46:30.832Z,98824.63
2023-03-31T03:48:57.701Z,98824.47
2023-03-31T03:51:24.333Z,98826.78
2023-03-31T03:53:51.064Z,98823.91
2023-03-31T03:56:17.704Z,98823.44
2023-03-31T03:58:44.312Z,98824.56
2023-03-31T04:01:10.889Z,98828.75
2023-03-31T04:03:37.777Z,98814.84
2023-03-31T04:06:04.759Z,98819.66
2023-03-31T04:08:31.778Z,98812.06
2023-03-31T04:10:58.486Z,98806.84
2023-03-31T04:13:25.123Z,98804.25
2023-03-31T04:15:51.867Z,98807.13
2023-03-31T04:18:24.948Z,98810.28
2023-03-31T04:21:05.821Z,98802.56
2023-03-31T04:23:34.354Z,98799.72
2023-03-31T04:26:01.605Z,98792.94
2023-03-31T04:28:34.898Z,98795.50
2023-03-31T04:31:03.824Z,98795.50
2023-03-31T04:33:30.817Z,98788.78
2023-03-31T04:35:57.442Z,98789.16
2023-03-31T04:38:27.183Z,98796.59
2023-03-31T04:40:54.419Z,98784.06
2023-03-31T04:43:21.710Z,98776.00
2023-03-31T04:45:48.396Z,98775.28
2023-03-31T04:48:15.353Z,98772.28
2023-03-31T04:50:42.301Z,98769.25
2023-03-31T04:53:08.920Z,98760.06
2023-03-31T04:55:35.579Z,98752.53
2023-03-31T04:58:02.230Z,98745.75
2023-03-31T05:00:29.064Z,98753.50
2023-03-31T05:02:56.066Z,98757.16
2023-03-31T05:05:22.850Z,98758.16
2023-03-31T05:07:49.411Z,98752.97
2023-03-31T05:10:16.056Z,98750.06
2023-03-31T05:12:42.642Z,98755.19
2023-03-31T05:15:09.709Z,98751.06
2023-03-31T05:17:36.752Z,98748.66
2023-03-31T05:20:08.221Z,98747.00
2023-03-31T05:22:36.861Z,98755.09
2023-03-31T05:25:05.954Z,98751.38
2023-03-31T05:27:33.119Z,98750.97
2023-03-31T05:30:00.182Z,98753.53
2023-03-31T05:32:27.874Z,98743.78
2023-03-31T05:34:57.373Z,98741.22
2023-03-31T05:37:25.357Z,98741.63
2023-03-31T05:39:52.561Z,98728.63
2023-03-31T05:42:20.022Z,98721.63
2023-03-31T05:44:46.786Z,98724.75
2023-03-31T05:47:13.665Z,98713.63
2023-03-31T05:49:40.261Z,98710.56
2023-03-31T05:52:07.894Z,98717.97
2023-03-31T05:54:34.526Z,98710.72
2023-03-31T05:57:01.193Z,98713.66
2023-03-31T05:59:29.077Z,98709.03
2023-03-31T06:01:55.857Z,98698.84
2023-03-31T06:04:22.658Z,98695.69
2023-03-31T06:06:50.437Z,98691.78
2023-03-31T06:09:17.964Z,98690.59
2023-03-31T06:11:44.837Z,98682.69
2023-03-31T06:14:11.756Z,98686.25
2023-03-31T06:16:38.854Z,98687.00
2023-03-31T06:19:05.703Z,98686.22
2023-03-31T06:21:32.341Z,98683.47
2023-03-31T06:24:00.405Z,98676.78
2023-03-31T06:26:27.559Z,98680.38
2023-03-31T06:28:54.336Z,98672.41
2023-03-31T06:31:23.644Z,98679.53
2023-03-31T06:33:51.028Z,98677.56
2023-03-31T06:36:19.994Z,98678.34
2023-03-31T06:38:46.830Z,98675.94
2023-03-31T06:41:15.012Z,98670.41
2023-03-31T06:43:41.943Z,98664.84
2023-03-31T06:46:09.199Z,98664.09
2023-03-31T06:48:36.084Z,98664.09
2023-03-31T06:51:04.515Z,98670.81
2023-03-31T06:53:31.209Z,98666.06
2023-03-31T06:55:58.082Z,98654.25
2023-03-31T06:58:24.840Z,98655.44
2023-03-31T07:00:52.888Z,98653.06
2023-03-31T07:03:22.831Z,98647.94
2023-03-31T07:05:50.968Z,98636.50
2023-03-31T07:08:18.229Z,98640.44
2023-03-31T07:10:48.880Z,98642.00
2023-03-31T07:13:17.311Z,98631.72
2023-03-31T07:15:44.950Z,98624.97
2023-03-31T07:18:12.667Z,98619.00
2023-03-31T07:20:39.245Z,98616.53
2023-03-31T07:23:06.291Z,98616.84
2023-03-31T07:25:33.087Z,98609.97
2023-03-31T07:27:59.618Z,98599.66
2023-03-31T07:30:26.819Z,98593.19
2023-03-31T07:32:54.766Z,98583.84
2023-03-31T07:35:22.981Z,98579.25
2023-03-31T07:37:51.396Z,98578.97
2023-03-31T07:40:21.827Z,98568.78
2023-03-31T07:42:49.500Z,98558.56
2023-03-31T07:45:17.032Z,98570.19
2023-03-31T07:47:46.555Z,98564.63
2023-03-31T07:50:15.628Z,98567.00
2023-03-31T07:52:44.774Z,98560.09
2023-03-31T07:55:13.354Z,98556.13
2023-03-31T07:57:41.489Z,98558.94
2023-03-31T08:00:11.009Z,98562.50
2023-03-31T08:02:38.370Z,98550.56
2023-03-31T08:05:07.349Z,98552.88
2023-03-31T08:07:36.228Z,98545.16
2023-03-31T08:10:06.259Z,98521.25
2023-03-31T08:12:32.967Z,98524.59
2023-03-31T08:14:59.678Z,98514.31
2023-03-31T08:17:26.304Z,98514.22
2023-03-31T08:19:53.652Z,98519.59
2023-03-31T08:22:20.859Z,98512.59
2023-03-31T08:24:47.563Z,98498.97
2023-03-31T08:27:14.222Z,98500.75
2023-03-31T08:29:42.123Z,98502.75
2023-03-31T08:32:08.859Z,98498.81
2023-03-31T08:34:36.543Z,98492.72
2023-03-31T08:37:04.593Z,98489.59
2023-03-31T08:39:32.587Z,98486.50
2023-03-31T08:42:09.354Z,98488.16
2023-03-31T08:44:48.003Z,98494.97
2023-03-31T08:47:20.335Z,98477.03
2023-03-31T08:49:52.638Z,98483.66
2023-03-31T08:52:33.476Z,98475.41
2023-03-31T08:55:04.718Z,98466.66
2023-03-31T08:58:00.765Z,98459.59
2023-03-31T09:00:36.677Z,98452.31
2023-03-31T09:03:12.326Z,98446.31
2023-03-31T09:05:59.305Z,98439.59
2023-03-31T09:08:35.094Z,98431.50
2023-03-31T09:11:13.386Z,98441.84
2023-03-31T09:14:05.143Z,98439.34
2023-03-31T09:16:53.585Z,98436.28
2023-03-31T09:19:44.098Z,98440.59
2023-03-31T09:22:22.792Z,98437.50
2023-03-31T09:24:53.229Z,98436.53
2023-03-31T09:27:21.183Z,98440.25
2023-03-31T09:30:15.936Z,98427.34
2023-03-31T09:32:43.170Z,98424.53
2023-03-31T09:35:25.657Z,98413.25
2023-03-31T09:37:54.008Z,98399.44
2023-03-31T09:40:29.940Z,98387.78
2023-03-31T09:43:00.615Z,98371.00
2023-03-31T09:45:27.898Z,98366.06
2023-03-31T09:47:57.130Z,98357.63
2023-03-31T09:50:25.370Z,98355.44
2023-03-31T09:52:59.004Z,98357.78
2023-03-31T09:55:39.199Z,98351.25
2023-03-31T09:58:08.472Z,98342.63
2023-03-31T10:00:36.278Z,98340.28
2023-03-31T10:03:08.435Z,98339.47
2023-03-31T10:05:38.506Z,98332.81
2023-03-31T10:08:14.139Z,98330.81
2023-03-31T10:10:46.984Z,98319.56
2023-03-31T10:13:17.877Z,98322.75
2023-03-31T10:15:44.787Z,98333.81
2023-03-31T10:18:19.995Z,98315.56
2023-03-31T10:20:52.050Z,98302.59
2023-03-31T10:23:28.536Z,98296.69
2023-03-31T10:25:55.931Z,98291.63
2023-03-31T10:28:24.074Z,98300.69
2023-03-31T10:30:56.503Z,98291.47
2023-03-31T10:33:25.957Z,98288.59
2023-03-31T10:36:09.276Z,98286.41
2023-03-31T10:38:40.707Z,98278.25
2023-03-31T10:41:07.945Z,98278.66
2023-03-31T10:43:43.105Z,98274.16
2023-03-31T10:46:10.231Z,98267.41
2023-03-31T10:48:39.942Z,98261.84
2023-03-31T10:51:21.520Z,98263.41
2023-03-31T10:53:53.371Z,98259.78
2023-03-31T10:59:32.171Z,98279.91
2023-03-31T11:02:09.721Z,98277.09
2023-03-31T11:04:45.528Z,98279.13
2023-03-31T11:07:42.717Z,98279.81
2023-03-31T11:10:21.448Z,98275.63
2023-03-31T11:13:03.018Z,98279.78
2023-03-31T11:15:44.548Z,98305.84
2023-03-31T11:18:32.484Z,98302.72
2023-03-31T11:21:32.504Z,98287.34
2023-03-31T11:24:13.147Z,98284.22
2023-03-31T11:27:04.700Z,98292.53
2023-03-31T11:29:56.164Z,98294.25
2023-03-31T11:32:38.871Z,98281.09
2023-03-31T11:35:21.403Z,98261.66
2023-03-31T11:38:18.507Z,98255.88
2023-03-31T11:40:48.008Z,98245.66
2023-03-31T11:43:14.542Z,98232.81
2023-03-31T11:45:56.235Z,98233.50
2023-03-31T11:48:46.728Z,98214.97
2023-03-31T11:51:42.070Z,98207.56
2023-03-31T11:54:16.468Z,98182.19
2023-03-31T11:56:43.308Z,98171.59
2023-03-31T11:59:16.240Z,98155.72
2023-03-31T12:01:50.526Z,98159.41
2023-03-31T12:04:36.845Z,98165.16
2023-03-31T12:07:22.701Z,98152.91
2023-03-31T12:10:11.366Z,98149.59
2023-03-31T12:12:46.903Z,98146.38
2023-03-31T12:15:25.428Z,98141.19
2023-03-31T12:18:16.747Z,98138.94
2023-03-31T12:20:54.081Z,98132.84
2023-03-31T12:23:25.674Z,98134.28
2023-03-31T12:26:20.278Z,98124.81
2023-03-31T12:28:48.834Z,98124.06
2023-03-31T12:31:23.635Z,98145.31
2023-03-31T12:34:07.108Z,98124.19
2023-03-31T12:37:13.487Z,98100.06
2023-03-31T12:40:18.686Z,98116.44
2023-03-31T12:42:51.387Z,98104.13
2023-03-31T12:45:29.117Z,98100.84
2023-03-31T12:48:20.413Z,98110.06
2023-03-31T12:51:02.340Z,98108.50
2023-03-31T12:53:50.527Z,98122.78
2023-03-31T12:56:17.131Z,98131.53
2023-03-31T12:58:46.014Z,98133.09
2023-03-31T13:01:16.353Z,98127.66
2023-03-31T13:04:21.589Z,98097.31
2023-03-31T13:06:58.269Z,98096.13
2023-03-31T13:09:44.381Z,98090.59
2023-03-31T13:12:18.103Z,98081.03
2023-03-31T13:14:47.548Z,98072.16
2023-03-31T13:17:23.174Z,98068.16
2023-03-31T13:19:51.361Z,98062.94
2023-03-31T13:22:36.207Z,98055.22
2023-03-31T13:25:58.317Z,98047.53
2023-03-31T13:28:28.118Z,98044.41
2023-03-31T13:31:02.039Z,98044.69
2023-03-31T13:33:36.402Z,98040.44
2023-03-31T13:36:34.931Z,98028.38
2023-03-31T13:39:36.040Z,98018.84
2023-03-31T13:42:42.819Z,98014.56
2023-03-31T13:45:32.154Z,98005.69
2023-03-31T13:48:04.779Z,97989.16
2023-03-31T13:50:52.729Z,97984.06
2023-03-31T13:53:41.962Z,97964.94
2023-03-31T13:56:27.111Z,97962.28
2023-03-31T13:59:15.994Z,97956.25
2023-03-31T14:01:51.590Z,97949.69
2023-03-31T14:04:30.328Z,97953.03
2023-03-31T14:07:02.304Z,97950.03
2023-03-31T14:09:34.827Z,97949.03
2023-03-31T14:12:18.537Z,97957.72
2023-03-31T14:14:45.297Z,97950.69
2023-03-31T14:17:12.502Z,97953.16
2023-03-31T14:19:55.118Z,97939.69
2023-03-31T14:22:58.168Z,97942.56
2023-03-31T14:25:42.928Z,97939.06
2023-03-31T14:28:47.560Z,97928.81
2023-03-31T14:31:52.298Z,97927.47
2023-03-31T14:34:43.262Z,97941.63
2023-03-31T14:37:17.993Z,97959.19
2023-03-31T14:39:47.359Z,97949.22
2023-03-31T14:42:18.988Z,97949.03
2023-03-31T14:44:48.709Z,97942.53
2023-03-31T14:47:20.931Z,97935.56
2023-03-31T14:49:47.596Z,97932.53
2023-03-31T14:52:20.039Z,97932.31
2023-03-31T14:54:49.923Z,97921.34
2023-03-31T14:57:25.680Z,97913.03
2023-03-31T14:59:54.600Z,97915.75
2023-03-31T15:02:32.754Z,97921.56
2023-03-31T15:05:03.173Z,97922.13
2023-03-31T15:07:30.034Z,97926.97
2023-03-31T15:09:56.755Z,97916.50
2023-03-31T15:12:23.627Z,97919.88
2023-03-31T15:14:54.600Z,97928.28
2023-03-31T15:17:29.262Z,97939.56
2023-03-31T15:20:04.610Z,97923.72
2023-03-31T15:22:31.554Z,97942.25
2023-03-31T15:24:58.216Z,97997.16
2023-03-31T15:27:38.108Z,98014.72
2023-03-31T15:30:19.390Z,98040.22
2023-03-31T15:32:46.512Z,98053.31
2023-03-31T15:35:32.617Z,98044.94
2023-03-31T15:38:02.224Z,98067.22
2023-03-31T15:40:39.663Z,98052.28
2023-03-31T15:43:25.506Z,98064.56
2023-03-31T15:45:54.919Z,98069.72
2023-03-31T15:48:35.764Z,98064.69
2023-03-31T15:51:26.017Z,98113.69
2023-03-31T15:53:54.260Z,98083.03
2023-03-31T15:56:46.597Z,98083.47
2023-03-31T15:59:27.447Z,98083.16
2023-03-31T16:01:59.945Z,98076.91
2023-03-31T16:04:32.708Z,98077.31
2023-03-31T16:07:30.433Z,98070.25
2023-03-31T16:10:00.333Z,98058.09
2023-03-31T16:12:43.108Z,98067.56
2023-03-31T16:15:16.215Z,98066.78
2023-03-31T16:17:58.820Z,98060.94
2023-03-31T16:20:28.087Z,98064.88
2023-03-31T16:23:01.178Z,98062.13
2023-03-31T16:25:31.593Z,98065.69
2023-03-31T16:28:01.358Z,98060.59
2023-03-31T16:30:40.361Z,98046.03
2023-03-31T16:33:15.829Z,98033.84
2023-03-31T16:35:49.056Z,98026.75
2023-03-31T16:38:16.668Z,98021.22
2023-03-31T16:40:46.146Z,98040.09
2023-03-31T16:43:23.894Z,98039.28
2023-03-31T16:45:55.823Z,98040.47
2023-03-31T16:48:24.938Z,98016.50
2023-03-31T16:50:54.441Z,97997.69
2023-03-31T16:53:24.023Z,97992.22
2023-03-31T16:55:50.646Z,97986.69
2023-03-31T16:58:17.922Z,97970.97
2023-03-31T17:00:45.931Z,97990.59
2023-03-31T17:03:14.946Z,98001.59
2023-03-31T17:05:46.529Z,97983.91
2023-03-31T17:08:14.231Z,97988.69
2023-03-31T17:10:41.508Z,97980.03
2023-03-31T17:13:09.300Z,97985.88
2023-03-31T17:15:36.591Z,97992.19
2023-03-31T17:18:04.296Z,97991.78
2023-03-31T17:20:31.559Z,97996.50
2023-03-31T17:22:58.741Z,97986.25
2023-03-31T17:25:25.743Z,97973.28
2023-03-31T17:27:52.398Z,97980.34
2023-03-31T17:30:19.209Z,97970.09
2023-03-31T17:32:46.421Z,97973.25
2023-03-31T17:35:20.444Z,97968.16
2023-03-31T17:37:53.572Z,97965.38
2023-03-31T17:40:22.028Z,97967.75
2023-03-31T17:42:49.561Z,97961.41
2023-03-31T17:45:16.556Z,97975.56
2023-03-31T17:47:44.805Z,97977.56
2023-03-31T17:50:12.736Z,97966.94
2023-03-31T17:52:39.432Z,97971.66
2023-03-31T17:55:06.409Z,97966.56
2023-03-31T17:57:33.163Z,97983.06
2023-03-31T17:59:59.791Z,97981.09
2023-03-31T18:02:26.377Z,97982.66
2023-03-31T18:04:53.412Z,97985.00
2023-03-31T18:07:23.126Z,97978.31
2023-03-31T18:09:49.932Z,97992.91
2023-03-31T18:12:16.644Z,97989.34
2023-03-31T18:14:43.235Z,98000.34
2023-03-31T18:17:14.739Z,97997.16
2023-03-31T18:19:42.862Z,98004.22
2023-03-31T18:22:10.006Z,98006.97
2023-03-31T18:24:38.459Z,98007.31
2023-03-31T18:27:05.661Z,98010.84
2023-03-31T18:29:32.347Z,98010.03
2023-03-31T18:31:59.285Z,98015.13
2023-03-31T18:34:25.886Z,98011.59
2023-03-31T18:36:53.441Z,98012.38
2023-03-31T18:39:20.425Z,98013.16
2023-03-31T18:41:48.575Z,98008.50
2023-03-31T18:44:17.434Z,98014.44
2023-03-31T18:46:45.027Z,98013.31
2023-03-31T18:49:12.073Z,98014.13
2023-03-31T18:51:38.631Z,98015.69
2023-03-31T18:54:05.307Z,98021.59
2023-03-31T18:56:31.920Z,98018.03
2023-03-31T18:58:59.482Z,98021.97
2023-03-31T19:01:26.613Z,98016.47
2023-03-31T19:03:53.268Z,98016.41
2023-03-31T19:06:21.103Z,98014.03
2023-03-31T19:08:47.830Z,98017.19
2023-03-31T19:11:16.341Z,98020.34
2023-03-31T19:13:44.189Z,98018.38
2023-03-31T19:16:12.359Z,98016.41
2023-03-31T19:18:39.602Z,98010.94
2023-03-31T19:21:06.382Z,98012.53
2023-03-31T19:23:33.464Z,98002.31
2023-03-31T19:26:00.576Z,97999.97
2023-03-31T19:28:27.939Z,97996.44
2023-03-31T19:30:56.705Z,98005.50
2023-03-31T19:33:25.089Z,98005.13
2023-03-31T19:35:52.265Z,98003.16
2023-03-31T19:38:19.658Z,97993.72
2023-03-31T19:40:46.184Z,98000.78
2023-03-31T19:43:22.997Z,97999.59
2023-03-31T19:45:53.208Z,98001.53
2023-03-31T19:48:20.852Z,98006.66
2023-03-31T19:50:51.840Z,98003.13
2023-03-31T19:53:19.626Z,98004.31
2023-03-31T19:56:08.166Z,98014.91
2023-03-31T19:58:36.357Z,98021.22
2023-03-31T20:01:06.612Z,98009.38
2023-03-31T20:03:34.007Z,98011.31
2023-03-31T20:06:06.986Z,98011.69
2023-03-31T20:08:34.901Z,98020.72
2023-03-31T20:11:03.955Z,98020.34
2023-03-31T20:13:32.578Z,98021.91
2023-03-31T20:16:06.147Z,98024.28
2023-03-31T20:18:34.605Z,98036.06
2023-03-31T20:21:15.739Z,98032.84
2023-03-31T20:23:43.607Z,98038.38
2023-03-31T20:26:13.307Z,98033.63
2023-03-31T20:28:40.584Z,98027.75
2023-03-31T20:31:13.766Z,98026.53
2023-03-31T20:33:42.368Z,98030.50
2023-03-31T20:36:11.415Z,98016.31
2023-03-31T20:38:39.995Z,98014.38
2023-03-31T20:41:07.779Z,98029.75
2023-03-31T20:43:35.792Z,98016.41
2023-03-31T20:46:05.081Z,98013.28
2023-03-31T20:48:37.597Z,98007.38
2023-03-31T20:51:07.086Z,98005.00
2023-03-31T20:53:42.184Z,97999.13
2023-03-31T20:56:14.834Z,97995.97
2023-03-31T20:58:44.218Z,97992.81
2023-03-31T21:01:11.694Z,97996.38
2023-03-31T21:03:38.525Z,97997.19
2023-03-31T21:06:11.505Z,97988.13
2023-03-31T21:08:39.653Z,98001.13
2023-03-31T21:11:06.477Z,97987.38
2023-03-31T21:13:33.112Z,97992.09
2023-03-31T21:16:01.180Z,98000.72
2023-03-31T21:18:29.778Z,97998.34
2023-03-31T21:20:59.528Z,97988.94
2023-03-31T21:23:27.886Z,97995.59
2023-03-31T21:25:58.005Z,97999.94
2023-03-31T21:28:31.109Z,97985.78
2023-03-31T21:31:02.624Z,97977.16
2023-03-31T21:33:30.467Z,97973.25
2023-03-31T21:35:58.635Z,97974.81
2023-03-31T21:38:27.855Z,97979.53
2023-03-31T21:40:55.921Z,97975.63
2023-03-31T21:43:23.829Z,97979.56
2023-03-31T21:45:53.396Z,97974.06
2023-03-31T21:48:25.423Z,97971.72
2023-03-31T21:50:54.770Z,97970.97
2023-03-31T21:53:23.201Z,97972.53
2023-03-31T21:55:55.508Z,97961.94
2023-03-31T21:58:23.554Z,97969.38
2023-03-31T22:00:50.187Z,97962.31
2023-03-31T22:03:27.055Z,97961.13
2023-03-31T22:05:58.172Z,97955.63
2023-03-31T22:08:27.034Z,97961.13
2023-03-31T22:10:54.708Z,97963.09
2023-03-31T22:13:23.101Z,97971.69
2023-03-31T22:15:50.057Z,97964.66
2023-03-31T22:18:19.473Z,97972.88
2023-03-31T22:20:46.788Z,97968.91
2023-03-31T22:23:13.562Z,97964.59
2023-03-31T22:25:40.434Z,97967.34
2023-03-31T22:28:07.915Z,97960.63
2023-03-31T22:30:35.326Z,97965.31
2023-03-31T22:33:02.031Z,97968.06
2023-03-31T22:35:29.189Z,97968.88
2023-03-31T22:37:56.227Z,97970.78
2023-03-31T22:40:23.846Z,97979.41
2023-03-31T22:42:50.682Z,97973.94
2023-03-31T22:45:17.312Z,97977.47
2023-03-31T22:47:44.129Z,97984.94
2023-03-31T22:50:11.317Z,97977.13
2023-03-31T22:52:38.343Z,97981.84
2023-03-31T22:55:06.298Z,97981.84
2023-03-31T22:57:33.299Z,97986.94
2023-03-31T23:00:00.153Z,97981.41
2023-03-31T23:02:26.734Z,97983.34
2023-03-31T23:04:53.310Z,97981.81
2023-03-31T23:07:21.930Z,97978.31
2023-03-31T23:09:48.985Z,97982.28
2023-03-31T23:12:16.022Z,97969.34
2023-03-31T23:14:42.654Z,97977.22
2023-03-31T23:17:09.316Z,97979.19
2023-03-31T23:19:37.167Z,97973.31
2023-03-31T23:22:03.857Z,97981.56
2023-03-31T23:24:30.603Z,97970.97
2023-03-31T23:26:57.276Z,97976.09
2023-03-31T23:29:23.833Z,97971.00
2023-03-31T23:31:50.530Z,97965.44
2023-03-31T23:34:17.219Z,97976.47
2023-03-31T23:36:43.831Z,97975.25
2023-03-31T23:39:10.847Z,97978.00
2023-03-31T23:41:37.670Z,97991.00
2023-03-31T23:44:04.751Z,97981.53
2023-03-31T23:46:32.020Z,97981.94
2023-03-31T23:48:59.456Z,97974.09
2023-03-31T23:51:26.244Z,97983.91
2023-03-31T23:53:52.993Z,97982.34
2023-03-31T23:56:19.915Z,97987.44
2023-03-31T23:58:47.144Z,97975.66
